createdAt,value
2023-05-19T00:01:25.155Z,10.87
2023-05-19T00:03:59.117Z,10.81
2023-05-19T00:06:31.828Z,10.77
2023-05-19T00:08:59.425Z,10.69
2023-05-19T00:11:27.846Z,10.68
2023-05-19T00:13:57.383Z,10.64
2023-05-19T00:16:27.201Z,10.65
2023-05-19T00:18:54.959Z,10.55
2023-05-19T00:21:22.470Z,10.58
2023-05-19T00:23:50.109Z,10.64
2023-05-19T00:26:17.663Z,10.57
2023-05-19T00:28:45.239Z,10.60
2023-05-19T00:31:12.834Z,10.52
2023-05-19T00:33:40.611Z,10.51
2023-05-19T00:36:08.541Z,10.53
2023-05-19T00:38:37.311Z,10.50
2023-05-19T00:41:06.008Z,10.45
2023-05-19T00:43:36.555Z,10.39
2023-05-19T00:46:04.367Z,10.45
2023-05-19T00:48:31.836Z,10.35
2023-05-19T00:51:04.896Z,10.35
2023-05-19T00:53:34.269Z,10.32
2023-05-19T00:56:02.375Z,10.37
2023-05-19T00:58:31.262Z,10.31
2023-05-19T01:01:04.401Z,10.23
2023-05-19T01:03:35.301Z,10.24
2023-05-19T01:06:05.373Z,10.25
2023-05-19T01:08:34.407Z,10.21
2023-05-19T01:11:01.954Z,10.14
2023-05-19T01:13:29.828Z,10.08
2023-05-19T01:16:13.180Z,10.11
2023-05-19T01:19:25.729Z,10.04
2023-05-19T01:22:27.059Z,10.13
2023-05-19T01:25:05.661Z,10.08
2023-05-19T01:28:04.708Z,10.00
2023-05-19T01:30:40.504Z,9.92
2023-05-19T01:33:12.520Z,10.02
2023-05-19T01:35:40.997Z,9.95
2023-05-19T01:38:13.423Z,10.00
2023-05-19T01:40:42.072Z,9.88
2023-05-19T01:43:16.233Z,9.85
2023-05-19T01:45:43.764Z,9.83
2023-05-19T01:48:12.888Z,9.79
2023-05-19T01:50:41.767Z,9.79
2023-05-19T01:53:09.443Z,9.78
2023-05-19T01:55:51.226Z,9.74
2023-05-19T01:58:46.553Z,9.69
2023-05-19T02:01:44.280Z,9.63
2023-05-19T02:04:40.067Z,9.68
2023-05-19T02:07:21.545Z,9.66
2023-05-19T02:10:06.281Z,9.65
2023-05-19T02:12:37.772Z,9.66
2023-05-19T02:15:18.558Z,9.61
2023-05-19T02:17:48.453Z,9.63
2023-05-19T02:20:16.649Z,9.55
2023-05-19T02:22:44.332Z,9.55
2023-05-19T02:25:12.079Z,9.42
2023-05-19T02:27:39.768Z,9.51
2023-05-19T02:30:08.939Z,9.44
2023-05-19T02:32:36.660Z,9.42
2023-05-19T02:35:05.026Z,9.34
2023-05-19T02:37:32.686Z,9.33
2023-05-19T02:40:00.175Z,9.39
2023-05-19T02:42:27.629Z,9.28
2023-05-19T02:44:55.629Z,9.35
2023-05-19T02:47:23.129Z,9.33
2023-05-19T02:49:50.287Z,9.21
2023-05-19T02:52:18.021Z,9.25
2023-05-19T02:54:45.106Z,9.20
2023-05-19T02:57:12.595Z,9.15
2023-05-19T02:59:39.967Z,9.14
2023-05-19T03:02:07.106Z,9.12
2023-05-19T03:04:41.695Z,9.07
2023-05-19T03:07:13.607Z,9.09
2023-05-19T03:09:41.243Z,8.97
2023-05-19T03:12:08.512Z,9.06
2023-05-19T03:14:39.507Z,9.02
2023-05-19T03:17:10.836Z,8.93
2023-05-19T03:19:38.299Z,8.94
2023-05-19T03:22:05.470Z,8.91
2023-05-19T03:24:32.838Z,8.83
2023-05-19T03:26:59.985Z,8.91
2023-05-19T03:29:27.009Z,8.96
2023-05-19T03:31:54.076Z,8.90
2023-05-19T03:34:22.586Z,8.87
2023-05-19T03:36:50.431Z,8.87
2023-05-19T03:39:17.509Z,8.73
2023-05-19T03:41:44.932Z,8.78
2023-05-19T03:44:12.447Z,8.77
2023-05-19T03:46:39.970Z,8.82
2023-05-19T03:49:07.721Z,8.82
2023-05-19T03:51:34.988Z,8.74
2023-05-19T03:54:02.694Z,8.73
2023-05-19T03:56:30.352Z,8.71
2023-05-19T03:58:57.449Z,8.91
2023-05-19T04:01:24.939Z,8.81
2023-05-19T04:03:52.046Z,8.70
2023-05-19T04:06:20.093Z,8.81
2023-05-19T04:08:47.720Z,8.75
2023-05-19T04:11:15.331Z,8.78
2023-05-19T04:13:44.039Z,8.75
2023-05-19T04:16:12.526Z,8.70
2023-05-19T04:18:40.020Z,8.75
2023-05-19T04:21:08.785Z,8.72
2023-05-19T04:23:36.408Z,8.81
2023-05-19T04:26:06.916Z,8.86
2023-05-19T04:28:36.831Z,8.90
2023-05-19T04:31:04.428Z,8.88
2023-05-19T04:33:34.046Z,8.96
2023-05-19T04:36:05.720Z,8.89
2023-05-19T04:38:33.576Z,8.88
2023-05-19T04:41:02.048Z,8.87
2023-05-19T04:43:29.588Z,8.91
2023-05-19T04:45:58.241Z,9.04
2023-05-19T04:48:26.152Z,8.99
2023-05-19T04:50:53.641Z,9.03
2023-05-19T04:53:22.068Z,9.06
2023-05-19T04:55:50.414Z,9.16
2023-05-19T04:58:18.717Z,9.05
2023-05-19T05:00:46.281Z,9.08
2023-05-19T05:03:14.737Z,9.14
2023-05-19T05:05:42.382Z,9.35
2023-05-19T05:08:11.394Z,9.28
2023-05-19T05:10:38.932Z,9.22
2023-05-19T05:13:06.664Z,9.25
2023-05-19T05:15:35.694Z,9.28
2023-05-19T05:18:03.643Z,9.38
2023-05-19T05:20:31.842Z,9.44
2023-05-19T05:22:59.409Z,9.51
2023-05-19T05:25:27.267Z,9.53
2023-05-19T05:27:54.717Z,9.47
2023-05-19T05:30:22.226Z,9.59
2023-05-19T05:32:49.980Z,9.68
2023-05-19T05:35:17.281Z,9.69
2023-05-19T05:37:44.743Z,9.74
2023-05-19T05:40:12.841Z,9.81
2023-05-19T05:42:40.424Z,9.84
2023-05-19T05:45:08.488Z,9.93
2023-05-19T05:47:39.855Z,9.98
2023-05-19T05:50:09.656Z,10.04
2023-05-19T05:52:37.869Z,10.18
2023-05-19T05:55:06.981Z,10.19
2023-05-19T05:57:37.386Z,10.30
2023-05-19T06:00:07.990Z,10.42
2023-05-19T06:02:35.361Z,10.48
2023-05-19T06:05:02.992Z,10.54
2023-05-19T06:07:30.501Z,10.69
2023-05-19T06:09:58.114Z,10.69
2023-05-19T06:12:27.335Z,10.83
2023-05-19T06:14:54.964Z,10.98
2023-05-19T06:17:22.478Z,11.04
2023-05-19T06:19:50.060Z,10.97
2023-05-19T06:22:17.780Z,11.30
2023-05-19T06:24:45.343Z,11.42
2023-05-19T06:27:12.849Z,11.44
2023-05-19T06:29:40.781Z,11.68
2023-05-19T06:32:08.195Z,11.85
2023-05-19T06:34:35.785Z,12.04
2023-05-19T06:37:03.571Z,12.08
2023-05-19T06:39:31.141Z,12.15
2023-05-19T06:41:59.502Z,12.13
2023-05-19T06:44:27.148Z,11.96
2023-05-19T06:46:57.106Z,12.27
2023-05-19T06:49:24.711Z,12.50
2023-05-19T06:51:52.229Z,12.62
2023-05-19T06:54:32.733Z,12.66
2023-05-19T06:56:59.745Z,12.67
2023-05-19T06:59:27.158Z,12.87
2023-05-19T07:01:55.115Z,13.10
2023-05-19T07:04:22.665Z,13.16
2023-05-19T07:06:50.536Z,13.04
2023-05-19T07:09:18.388Z,13.19
2023-05-19T07:11:45.882Z,13.26
2023-05-19T07:14:16.304Z,13.08
2023-05-19T07:16:43.857Z,13.21
2023-05-19T07:19:10.972Z,13.27
2023-05-19T07:21:38.192Z,13.49
2023-05-19T07:24:05.910Z,13.55
2023-05-19T07:26:35.780Z,13.82
2023-05-19T07:29:02.897Z,13.90
2023-05-19T07:31:30.136Z,13.95
2023-05-19T07:33:58.969Z,14.14
2023-05-19T07:36:25.995Z,14.13
2023-05-19T07:38:53.387Z,14.32
2023-05-19T07:41:21.890Z,14.27
2023-05-19T07:43:50.074Z,14.39
2023-05-19T07:46:17.325Z,14.42
2023-05-19T07:48:44.712Z,14.13
2023-05-19T07:51:12.937Z,14.50
2023-05-19T07:53:40.572Z,14.93
2023-05-19T07:56:07.766Z,14.87
2023-05-19T07:58:34.905Z,14.94
2023-05-19T08:01:02.048Z,14.99
2023-05-19T08:03:30.824Z,15.19
2023-05-19T08:05:58.451Z,15.16
2023-05-19T08:08:25.641Z,15.30
2023-05-19T08:10:52.669Z,15.53
2023-05-19T08:13:19.872Z,15.52
2023-05-19T08:15:47.359Z,15.71
2023-05-19T08:18:14.450Z,15.47
2023-05-19T08:20:41.495Z,15.63
2023-05-19T08:23:08.563Z,15.82
2023-05-19T08:25:35.762Z,15.71
2023-05-19T08:28:03.264Z,16.23
2023-05-19T08:30:30.412Z,16.05
2023-05-19T08:32:58.183Z,15.98
2023-05-19T08:35:25.516Z,16.04
2023-05-19T08:37:54.189Z,15.82
2023-05-19T08:40:22.042Z,15.84
2023-05-19T08:42:49.767Z,16.20
2023-05-19T08:45:16.995Z,16.72
2023-05-19T08:47:49.732Z,16.33
2023-05-19T08:50:25.518Z,16.44
2023-05-19T08:53:33.051Z,16.75
2023-05-19T08:56:24.962Z,17.05
2023-05-19T08:58:52.770Z,16.76
2023-05-19T09:01:20.606Z,17.23
2023-05-19T09:03:50.536Z,17.12
2023-05-19T09:06:18.031Z,17.58
2023-05-19T09:08:47.215Z,17.39
2023-05-19T09:11:14.717Z,17.41
2023-05-19T09:13:42.224Z,17.69
2023-05-19T09:16:11.665Z,17.63
2023-05-19T09:18:41.056Z,17.74
2023-05-19T09:21:10.273Z,18.23
2023-05-19T09:23:37.709Z,17.91
2023-05-19T09:26:09.116Z,17.75
2023-05-19T09:28:38.097Z,18.35
2023-05-19T09:31:12.873Z,18.12
2023-05-19T09:33:46.225Z,18.06
2023-05-19T09:36:14.727Z,18.22
2023-05-19T09:38:42.542Z,18.86
2023-05-19T09:41:09.879Z,18.03
2023-05-19T09:43:37.301Z,18.55
2023-05-19T09:46:08.057Z,19.13
2023-05-19T09:48:36.692Z,19.39
2023-05-19T09:51:07.678Z,18.90
2023-05-19T09:53:35.409Z,19.31
2023-05-19T09:56:03.719Z,19.10
2023-05-19T09:58:35.640Z,19.25
2023-05-19T10:01:04.910Z,19.24
2023-05-19T10:03:36.926Z,19.37
2023-05-19T10:06:09.306Z,19.17
2023-05-19T10:08:37.941Z,19.36
2023-05-19T10:11:06.827Z,19.91
2023-05-19T10:13:38.716Z,19.87
2023-05-19T10:16:07.023Z,19.85
2023-05-19T10:18:34.561Z,19.95
2023-05-19T10:21:03.090Z,20.37
2023-05-19T10:23:30.544Z,20.04
2023-05-19T10:26:00.371Z,20.15
2023-05-19T10:28:37.265Z,20.27
2023-05-19T10:31:10.302Z,20.09
2023-05-19T10:34:27.982Z,20.60
2023-05-19T10:37:07.222Z,20.95
2023-05-19T10:39:36.409Z,20.68
2023-05-19T10:42:32.698Z,21.47
2023-05-19T10:45:20.403Z,22.06
2023-05-19T10:47:51.950Z,21.78
2023-05-19T10:50:20.161Z,20.78
2023-05-19T10:52:55.774Z,20.40
2023-05-19T10:55:50.121Z,21.01
2023-05-19T10:58:45.812Z,21.29
2023-05-19T11:01:21.035Z,21.49
2023-05-19T11:03:57.307Z,20.75
2023-05-19T11:06:32.484Z,20.50
2023-05-19T11:09:14.245Z,20.20
2023-05-19T11:11:54.608Z,20.20
2023-05-19T11:14:27.495Z,20.94
2023-05-19T11:16:58.423Z,21.17
2023-05-19T11:19:32.159Z,20.51
2023-05-19T11:22:14.778Z,21.28
2023-05-19T11:24:46.305Z,21.20
2023-05-19T11:27:33.278Z,21.09
2023-05-19T11:30:17.568Z,21.02
2023-05-19T11:32:45.199Z,20.62
2023-05-19T11:35:12.735Z,21.50
2023-05-19T11:37:41.579Z,20.94
2023-05-19T11:40:09.671Z,20.77
2023-05-19T11:42:37.368Z,21.09
2023-05-19T11:45:06.057Z,21.13
2023-05-19T11:47:42.564Z,21.30
2023-05-19T11:50:20.629Z,20.96
2023-05-19T11:52:48.208Z,20.90
2023-05-19T11:55:22.392Z,21.35
2023-05-19T11:58:04.577Z,21.75
2023-05-19T12:00:39.388Z,21.75
2023-05-19T12:03:08.163Z,21.31
2023-05-19T12:05:43.693Z,21.82
2023-05-19T12:08:12.489Z,21.19
2023-05-19T12:10:40.698Z,21.05
2023-05-19T12:13:11.774Z,21.15
2023-05-19T12:15:39.851Z,21.04
2023-05-19T12:18:07.541Z,21.13
2023-05-19T12:20:38.281Z,20.94
2023-05-19T12:23:06.689Z,21.19
2023-05-19T12:25:34.344Z,20.99
2023-05-19T12:28:05.299Z,20.88
2023-05-19T12:30:34.714Z,20.74
2023-05-19T12:33:03.084Z,20.67
2023-05-19T12:35:36.427Z,20.94
2023-05-19T12:38:09.622Z,21.77
2023-05-19T12:40:42.218Z,22.84
2023-05-19T12:43:19.217Z,22.90
2023-05-19T12:45:46.648Z,22.32
2023-05-19T12:48:16.681Z,22.16
2023-05-19T12:50:48.595Z,21.55
2023-05-19T12:53:16.305Z,21.36
2023-05-19T12:55:45.688Z,21.31
2023-05-19T12:58:13.638Z,21.55
2023-05-19T13:00:43.952Z,21.21
2023-05-19T13:03:19.668Z,21.07
2023-05-19T13:05:49.548Z,21.18
2023-05-19T13:08:23.496Z,21.12
2023-05-19T13:10:51.443Z,20.95
2023-05-19T13:13:21.829Z,21.14
2023-05-19T13:15:49.488Z,20.96
2023-05-19T13:18:17.693Z,20.70
2023-05-19T13:20:47.389Z,20.89
2023-05-19T13:23:14.987Z,20.70
2023-05-19T13:25:42.872Z,20.32
2023-05-19T13:28:11.018Z,20.26
2023-05-19T13:30:40.660Z,20.02
2023-05-19T13:33:08.392Z,19.74
2023-05-19T13:35:39.392Z,20.09
2023-05-19T13:38:10.284Z,20.24
2023-05-19T13:40:38.910Z,20.21
2023-05-19T13:43:07.452Z,19.90
2023-05-19T13:45:38.244Z,19.58
2023-05-19T13:48:07.843Z,19.84
2023-05-19T13:50:35.352Z,19.81
2023-05-19T13:53:03.920Z,19.85
2023-05-19T13:55:31.731Z,19.90
2023-05-19T13:57:59.643Z,20.09
2023-05-19T14:00:27.260Z,19.85
2023-05-19T14:02:55.335Z,19.70
2023-05-19T14:05:23.192Z,19.80
2023-05-19T14:07:50.879Z,19.74
2023-05-19T14:10:18.295Z,19.33
2023-05-19T14:13:14.170Z,19.36
2023-05-19T14:15:38.077Z,19.45
2023-05-19T14:18:07.173Z,19.35
2023-05-19T14:20:35.372Z,19.14
2023-05-19T14:23:03.411Z,19.13
2023-05-19T14:25:31.631Z,19.40
2023-05-19T14:27:59.146Z,18.99
2023-05-19T14:30:26.948Z,18.94
2023-05-19T14:32:54.685Z,18.76
2023-05-19T14:35:23.181Z,18.96
2023-05-19T14:37:51.184Z,18.97
2023-05-19T14:40:18.896Z,19.03
2023-05-19T14:42:46.332Z,19.10
2023-05-19T14:45:13.976Z,18.84
2023-05-19T14:47:41.425Z,18.77
2023-05-19T14:50:09.134Z,18.98
2023-05-19T14:52:38.360Z,18.81
2023-05-19T14:55:06.325Z,18.91
2023-05-19T14:57:34.372Z,18.73
2023-05-19T15:00:02.321Z,18.96
2023-05-19T15:02:30.356Z,19.06
2023-05-19T15:04:57.965Z,19.18
2023-05-19T15:07:25.545Z,19.21
2023-05-19T15:09:53.311Z,19.36
2023-05-19T15:12:20.893Z,19.43
2023-05-19T15:14:48.426Z,19.45
2023-05-19T15:17:15.929Z,19.62
2023-05-19T15:19:43.512Z,19.31
2023-05-19T15:22:11.061Z,19.26
2023-05-19T15:24:38.416Z,19.41
2023-05-19T15:27:06.019Z,19.22
2023-05-19T15:29:33.499Z,19.20
2023-05-19T15:32:01.223Z,19.02
2023-05-19T15:34:28.673Z,19.13
2023-05-19T15:36:56.179Z,18.99
2023-05-19T15:39:23.918Z,19.10
2023-05-19T15:41:53.720Z,19.08
2023-05-19T15:44:21.177Z,19.35
2023-05-19T15:46:48.739Z,19.37
2023-05-19T15:49:18.006Z,19.16
2023-05-19T15:51:45.954Z,19.16
2023-05-19T15:54:13.538Z,19.04
2023-05-19T15:56:41.193Z,19.03
2023-05-19T15:59:08.599Z,19.08
2023-05-19T16:01:36.295Z,19.10
2023-05-19T16:04:04.104Z,19.21
2023-05-19T16:06:31.763Z,19.32
2023-05-19T16:08:59.243Z,19.25
2023-05-19T16:11:26.878Z,19.25
2023-05-19T16:13:54.316Z,19.10
2023-05-19T16:16:21.984Z,19.58
2023-05-19T16:18:49.533Z,19.39
2023-05-19T16:21:17.034Z,19.13
2023-05-19T16:23:44.245Z,19.36
2023-05-19T16:26:11.400Z,19.41
2023-05-19T16:28:38.949Z,19.40
2023-05-19T16:31:06.427Z,19.18
2023-05-19T16:33:33.876Z,19.20
2023-05-19T16:36:01.467Z,19.18
2023-05-19T16:38:29.194Z,19.38
2023-05-19T16:40:56.706Z,19.38
2023-05-19T16:43:24.224Z,19.37
2023-05-19T16:45:51.851Z,19.47
2023-05-19T16:48:19.448Z,19.37
2023-05-19T16:50:49.208Z,19.40
2023-05-19T16:53:16.636Z,19.11
2023-05-19T16:55:44.180Z,19.09
2023-05-19T16:58:11.904Z,19.14
2023-05-19T17:00:39.393Z,19.14
2023-05-19T17:03:07.007Z,18.98
2023-05-19T17:05:36.338Z,19.08
2023-05-19T17:08:04.048Z,19.01
2023-05-19T17:10:31.629Z,18.99
2023-05-19T17:12:59.257Z,19.01
2023-05-19T17:15:27.093Z,18.98
2023-05-19T17:17:54.542Z,18.92
2023-05-19T17:20:22.010Z,18.91
2023-05-19T17:22:49.476Z,19.02
2023-05-19T17:25:17.173Z,18.95
2023-05-19T17:27:44.663Z,18.96
2023-05-19T17:30:13.120Z,18.95
2023-05-19T17:32:40.912Z,18.80
2023-05-19T17:35:08.708Z,18.84
2023-05-19T17:37:36.490Z,18.81
2023-05-19T17:40:04.252Z,18.77
2023-05-19T17:42:31.940Z,18.72
2023-05-19T17:44:59.707Z,18.66
2023-05-19T17:47:27.538Z,18.67
2023-05-19T17:49:55.028Z,18.66
2023-05-19T17:52:22.614Z,18.71
2023-05-19T17:54:50.841Z,18.77
2023-05-19T17:57:18.781Z,18.81
2023-05-19T17:59:46.598Z,18.58
2023-05-19T18:02:15.360Z,18.81
2023-05-19T18:04:43.145Z,18.66
2023-05-19T18:07:11.045Z,18.45
2023-05-19T18:09:42.118Z,18.38
2023-05-19T18:12:09.551Z,18.39
2023-05-19T18:14:36.959Z,18.37
2023-05-19T18:17:04.966Z,18.35
2023-05-19T18:19:32.342Z,18.32
2023-05-19T18:21:59.893Z,18.27
2023-05-19T18:24:27.330Z,18.20
2023-05-19T18:26:54.847Z,18.22
2023-05-19T18:29:22.261Z,18.24
2023-05-19T18:31:52.156Z,18.08
2023-05-19T18:34:19.797Z,18.14
2023-05-19T18:36:47.233Z,17.95
2023-05-19T18:39:14.621Z,17.94
2023-05-19T18:41:42.924Z,17.94
2023-05-19T18:44:11.256Z,17.89
2023-05-19T18:46:38.698Z,17.82
2023-05-19T18:49:06.154Z,17.79
2023-05-19T18:51:36.112Z,17.77
2023-05-19T18:54:03.623Z,17.74
2023-05-19T18:56:33.876Z,17.68
2023-05-19T18:59:01.399Z,17.65
2023-05-19T19:01:29.018Z,17.62
2023-05-19T19:03:56.538Z,17.64
2023-05-19T19:06:24.089Z,17.68
2023-05-19T19:08:52.169Z,17.61
2023-05-19T19:11:19.777Z,17.56
2023-05-19T19:13:51.126Z,17.64
2023-05-19T19:16:18.836Z,17.65
2023-05-19T19:18:46.603Z,17.68
2023-05-19T19:21:14.124Z,17.57
2023-05-19T19:23:41.525Z,17.53
2023-05-19T19:26:09.654Z,17.54
2023-05-19T19:28:37.343Z,17.46
2023-05-19T19:31:04.924Z,17.40
2023-05-19T19:33:32.467Z,17.46
2023-05-19T19:36:00.012Z,17.40
2023-05-19T19:38:27.679Z,17.37
2023-05-19T19:40:55.132Z,17.31
2023-05-19T19:43:22.991Z,17.30
2023-05-19T19:46:02.861Z,17.23
2023-05-19T19:48:30.713Z,17.21
2023-05-19T19:50:58.502Z,17.19
2023-05-19T19:53:26.004Z,17.11
2023-05-19T19:58:35.537Z,17.12
2023-05-19T20:01:03.830Z,17.11
2023-05-19T20:03:33.402Z,17.06
2023-05-19T20:06:05.155Z,17.08
2023-05-19T20:08:32.672Z,17.01
2023-05-19T20:11:00.186Z,16.95
2023-05-19T20:13:27.586Z,16.96
2023-05-19T20:15:55.187Z,16.92
2023-05-19T20:18:22.688Z,16.94
2023-05-19T20:20:50.158Z,16.89
2023-05-19T20:23:17.844Z,16.83
2023-05-19T20:26:02.439Z,16.82
2023-05-19T20:28:32.801Z,16.78
2023-05-19T20:31:00.455Z,16.71
2023-05-19T20:33:28.015Z,16.64
2023-05-19T20:35:55.519Z,16.62
2023-05-19T20:38:22.980Z,16.67
2023-05-19T20:40:51.338Z,16.69
2023-05-19T20:43:18.877Z,16.63
2023-05-19T20:45:46.588Z,16.64
2023-05-19T20:48:16.192Z,16.64
2023-05-19T20:50:44.551Z,16.61
2023-05-19T20:53:12.327Z,16.60
2023-05-19T20:55:40.019Z,16.58
2023-05-19T20:58:07.700Z,16.54
2023-05-19T21:00:35.370Z,16.55
2023-05-19T21:03:04.527Z,16.54
2023-05-19T21:05:32.397Z,16.49
2023-05-19T21:08:00.132Z,16.49
2023-05-19T21:10:27.644Z,16.43
2023-05-19T21:12:56.646Z,16.45
2023-05-19T21:15:25.032Z,16.44
2023-05-19T21:17:52.751Z,16.38
2023-05-19T21:20:20.377Z,16.35
2023-05-19T21:22:48.670Z,16.38
2023-05-19T21:25:17.140Z,16.36
2023-05-19T21:27:46.366Z,16.30
2023-05-19T21:30:14.384Z,16.29
2023-05-19T21:32:42.025Z,16.18
2023-05-19T21:35:09.899Z,16.19
2023-05-19T21:37:37.408Z,16.17
2023-05-19T21:40:05.386Z,16.17
2023-05-19T21:42:32.842Z,16.13
2023-05-19T21:45:00.961Z,16.18
2023-05-19T21:47:28.580Z,16.14
2023-05-19T21:49:56.287Z,16.12
2023-05-19T21:52:23.938Z,16.08
2023-05-19T21:54:52.106Z,16.07
2023-05-19T21:57:19.603Z,15.99
2023-05-19T21:59:47.198Z,16.03
2023-05-19T22:02:15.002Z,16.02
2023-05-19T22:04:43.087Z,15.97
2023-05-19T22:07:11.863Z,15.98
2023-05-19T22:09:39.348Z,15.88
2023-05-19T22:12:07.369Z,15.88
2023-05-19T22:14:35.986Z,15.87
2023-05-19T22:17:03.665Z,15.82
2023-05-19T22:19:31.558Z,15.78
2023-05-19T22:22:05.992Z,15.79
2023-05-19T22:24:40.313Z,15.77
2023-05-19T22:27:08.512Z,15.71
2023-05-19T22:29:38.910Z,15.71
2023-05-19T22:32:09.330Z,15.74
2023-05-19T22:34:36.999Z,15.67
2023-05-19T22:37:05.241Z,15.70
2023-05-19T22:39:33.035Z,15.67
2023-05-19T22:42:00.611Z,15.67
2023-05-19T22:44:28.617Z,15.59
2023-05-19T22:46:56.255Z,15.56
2023-05-19T22:49:23.859Z,15.55
2023-05-19T22:51:52.132Z,15.50
2023-05-19T22:54:19.707Z,15.48
2023-05-19T22:56:49.062Z,15.48
2023-05-19T22:59:19.426Z,15.43
2023-05-19T23:01:47.149Z,15.41
2023-05-19T23:04:15.372Z,15.42
2023-05-19T23:06:43.018Z,15.36
2023-05-19T23:09:10.487Z,15.36
2023-05-19T23:11:37.957Z,15.35
2023-05-19T23:14:05.788Z,15.34
2023-05-19T23:16:33.995Z,15.29
2023-05-19T23:19:02.113Z,15.28
2023-05-19T23:21:32.792Z,15.31
2023-05-19T23:24:00.733Z,15.28
2023-05-19T23:26:28.691Z,15.31
2023-05-19T23:28:56.555Z,15.19
2023-05-19T23:31:24.684Z,15.19
